Monroe City, Indiana
Current Conditions -  °F | °C
As of 6:55 AM on Thursday 27 Nov 2014 (Local Time) from KDCY Reporting Station
Overcast Overcast  
Wind Chill: 19°   Ceiling: 1800
Heat Index: 28°   Visibility: 7mi
Dew Point: 25°   Wind: 9mph
Humidity: 91%   Direction: 310°NW
Pressure: 30.33"   Gusts: NA
Location:  38.62°N, 87.35°W
Report Text: KDCY 271255Z AUTO 31008KT 7SM OVC018 M02/M04 A3033 RMK AO2 T10241037
Loading
Personal Weather Stations






























Interactive Weather Map New forecast layout! Learn more

10-Day Weather Forecast

Advertisements
Track Severe Weather on mobile